createdAt,value
2022-12-14T00:02:02.822Z,8.45
2022-12-14T00:04:31.228Z,8.85
2022-12-14T00:06:59.672Z,8.63
2022-12-14T00:09:27.853Z,8.43
2022-12-14T00:11:56.043Z,8.45
2022-12-14T00:14:25.708Z,8.77
2022-12-14T00:16:54.013Z,8.30
2022-12-14T00:19:22.323Z,7.72
2022-12-14T00:21:50.609Z,7.53
2022-12-14T00:24:20.545Z,7.00
2022-12-14T00:26:48.742Z,6.88
2022-12-14T00:29:16.914Z,6.53
2022-12-14T00:31:48.792Z,6.70
2022-12-14T00:34:17.736Z,6.83
2022-12-14T00:36:46.352Z,7.47
2022-12-14T00:39:14.639Z,7.53
2022-12-14T00:41:43.310Z,6.55
2022-12-14T00:44:11.516Z,6.85
2022-12-14T00:46:39.760Z,6.67
2022-12-14T00:49:09.338Z,7.40
2022-12-14T00:51:37.574Z,6.65
2022-12-14T00:54:06.266Z,6.90
2022-12-14T00:56:34.548Z,5.35
2022-12-14T00:59:02.741Z,6.15
2022-12-14T01:01:31.649Z,6.43
2022-12-14T01:04:13.927Z,6.20
2022-12-14T01:06:43.618Z,6.35
2022-12-14T01:09:11.889Z,6.25
2022-12-14T01:11:40.123Z,5.68
2022-12-14T01:14:09.136Z,5.28
2022-12-14T01:16:37.522Z,5.95
2022-12-14T01:19:06.367Z,6.33
2022-12-14T01:21:35.269Z,6.53
2022-12-14T01:24:06.139Z,6.03
2022-12-14T01:26:39.522Z,6.30
2022-12-14T01:29:08.997Z,6.05
2022-12-14T01:31:39.254Z,5.83
2022-12-14T01:34:08.273Z,5.47
2022-12-14T01:36:38.036Z,5.80
2022-12-14T01:39:09.508Z,5.63
2022-12-14T01:41:39.743Z,6.03
2022-12-14T01:44:41.203Z,5.25
2022-12-14T01:47:18.497Z,4.85
2022-12-14T01:49:50.994Z,5.20
2022-12-14T01:52:23.110Z,5.70
2022-12-14T01:54:59.625Z,5.13
2022-12-14T01:57:31.582Z,5.35
2022-12-14T02:00:05.341Z,5.47
2022-12-14T02:02:37.262Z,5.90
2022-12-14T02:05:08.881Z,5.00
2022-12-14T02:07:40.022Z,6.07
2022-12-14T02:10:11.738Z,5.47
2022-12-14T02:12:43.928Z,6.15
2022-12-14T02:15:13.768Z,4.93
2022-12-14T02:17:43.992Z,5.30
2022-12-14T02:20:14.152Z,5.60
2022-12-14T02:23:11.221Z,5.15
2022-12-14T02:26:27.363Z,5.38
2022-12-14T02:29:26.579Z,6.10
2022-12-14T02:32:05.683Z,5.25
2022-12-14T02:34:46.694Z,5.00
2022-12-14T02:37:23.446Z,5.13
2022-12-14T02:39:59.301Z,5.10
2022-12-14T02:42:36.219Z,5.35
2022-12-14T02:45:12.061Z,5.10
2022-12-14T02:47:49.925Z,4.50
2022-12-14T02:50:23.909Z,5.10
2022-12-14T02:53:02.784Z,5.60
2022-12-14T02:55:36.406Z,5.40
2022-12-14T02:58:07.678Z,4.30
2022-12-14T03:00:39.347Z,4.10
2022-12-14T03:03:08.149Z,4.70
2022-12-14T03:05:37.187Z,4.93
2022-12-14T03:08:08.027Z,5.30
2022-12-14T03:10:40.075Z,5.57
2022-12-14T03:13:16.692Z,5.35
2022-12-14T03:15:49.875Z,4.88
2022-12-14T03:18:20.834Z,4.70
2022-12-14T03:20:53.347Z,4.68
2022-12-14T03:23:25.308Z,4.70
2022-12-14T03:26:00.176Z,5.67
2022-12-14T03:28:33.934Z,5.75
2022-12-14T03:31:07.081Z,5.70
2022-12-14T03:33:37.620Z,4.57
2022-12-14T03:36:12.114Z,5.18
2022-12-14T03:38:44.179Z,4.63
2022-12-14T03:41:20.263Z,4.87
2022-12-14T03:44:03.894Z,4.80
2022-12-14T03:46:42.592Z,5.22
2022-12-14T03:49:20.776Z,4.32
2022-12-14T03:51:59.133Z,4.85
2022-12-14T03:54:38.482Z,4.93
2022-12-14T03:57:13.584Z,5.37
2022-12-14T03:59:53.870Z,5.07
2022-12-14T04:02:28.549Z,4.50
2022-12-14T04:05:03.193Z,4.30
2022-12-14T04:07:37.614Z,5.30
2022-12-14T04:10:32.173Z,4.15
2022-12-14T04:13:31.072Z,4.95
2022-12-14T04:16:23.211Z,4.20
2022-12-14T04:19:00.430Z,5.38
2022-12-14T04:21:38.525Z,5.50
2022-12-14T04:24:31.073Z,4.95
2022-12-14T04:27:06.464Z,4.40
2022-12-14T04:29:51.581Z,5.00
2022-12-14T04:32:24.363Z,3.90
2022-12-14T04:34:58.872Z,4.05
2022-12-14T04:37:29.919Z,5.87
2022-12-14T04:40:02.997Z,6.13
2022-12-14T04:42:35.646Z,5.20
2022-12-14T04:45:09.319Z,4.72
2022-12-14T04:47:43.412Z,4.45
2022-12-14T04:50:18.834Z,5.35
2022-12-14T04:52:52.051Z,5.70
2022-12-14T04:55:28.858Z,5.45
2022-12-14T04:58:00.083Z,5.28
2022-12-14T05:00:31.476Z,5.38
2022-12-14T05:03:18.452Z,5.63
2022-12-14T05:05:55.890Z,5.05
2022-12-14T05:08:37.080Z,5.07
2022-12-14T05:11:41.346Z,4.75
2022-12-14T05:14:03.068Z,4.78
2022-12-14T05:16:31.420Z,4.70
2022-12-14T05:18:59.743Z,4.90
2022-12-14T05:21:47.382Z,5.10
2022-12-14T05:24:16.139Z,5.00
2022-12-14T05:26:44.640Z,4.57
2022-12-14T05:29:13.642Z,5.80
2022-12-14T05:31:41.964Z,4.72
2022-12-14T05:34:17.352Z,3.85
2022-12-14T05:36:47.011Z,4.10
2022-12-14T05:39:16.460Z,5.00
2022-12-14T05:41:45.480Z,5.20
2022-12-14T05:44:13.668Z,4.90
2022-12-14T05:46:41.879Z,5.20
2022-12-14T05:49:10.713Z,4.53
2022-12-14T05:51:38.904Z,4.60
2022-12-14T05:54:08.754Z,4.78
2022-12-14T05:56:37.192Z,4.78
2022-12-14T05:59:05.332Z,5.00
2022-12-14T06:01:33.729Z,5.30
2022-12-14T06:04:01.978Z,5.00
2022-12-14T06:06:30.330Z,5.30
2022-12-14T06:08:58.601Z,5.93
2022-12-14T06:11:28.196Z,5.13
2022-12-14T06:13:56.380Z,5.57
2022-12-14T06:16:26.656Z,5.57
2022-12-14T06:18:57.226Z,5.40
2022-12-14T06:21:28.354Z,5.05
2022-12-14T06:23:57.441Z,5.40
2022-12-14T06:26:28.397Z,5.45
2022-12-14T06:28:57.406Z,5.57
2022-12-14T06:31:27.547Z,5.80
2022-12-14T06:33:56.518Z,6.20
2022-12-14T06:36:27.093Z,5.93
2022-12-14T06:38:55.717Z,5.30
2022-12-14T06:41:25.386Z,5.20
2022-12-14T06:43:55.079Z,4.72
2022-12-14T06:46:24.545Z,4.45
2022-12-14T06:48:53.800Z,4.40
2022-12-14T06:51:23.134Z,4.20
2022-12-14T06:53:52.905Z,4.70
2022-12-14T06:56:22.406Z,4.95
2022-12-14T06:58:51.090Z,5.00
2022-12-14T07:01:22.529Z,4.90
2022-12-14T07:03:53.437Z,4.80
2022-12-14T07:06:22.314Z,4.57
2022-12-14T07:08:53.537Z,5.30
2022-12-14T07:11:21.782Z,4.75
2022-12-14T07:13:50.090Z,4.22
2022-12-14T07:16:21.678Z,4.30
2022-12-14T07:18:50.593Z,4.75
2022-12-14T07:21:20.671Z,5.70
2022-12-14T07:23:52.260Z,5.40
2022-12-14T07:26:22.416Z,5.53
2022-12-14T07:28:51.670Z,5.43
2022-12-14T07:31:24.060Z,5.50
2022-12-14T07:33:54.320Z,5.40
2022-12-14T07:36:23.887Z,5.68
2022-12-14T07:38:52.922Z,5.30
2022-12-14T07:41:23.596Z,6.00
2022-12-14T07:43:54.474Z,5.90
2022-12-14T07:46:26.145Z,6.50
2022-12-14T07:48:55.706Z,6.25
2022-12-14T07:51:26.046Z,6.57
2022-12-14T07:53:55.694Z,4.82
2022-12-14T07:56:25.954Z,5.10
2022-12-14T07:58:55.595Z,4.78
2022-12-14T08:01:27.690Z,4.85
2022-12-14T08:03:57.410Z,5.50
2022-12-14T08:06:27.913Z,5.10
2022-12-14T08:08:56.863Z,4.50
2022-12-14T08:11:26.219Z,4.95
2022-12-14T08:13:54.925Z,5.20
2022-12-14T08:16:25.195Z,5.00
2022-12-14T08:18:54.975Z,4.88
2022-12-14T08:21:25.490Z,5.47
2022-12-14T08:23:54.925Z,5.80
2022-12-14T08:26:30.034Z,5.00
2022-12-14T08:29:01.688Z,5.00
2022-12-14T08:31:31.812Z,4.72
2022-12-14T08:34:01.207Z,4.70
2022-12-14T08:36:32.647Z,6.45
2022-12-14T08:39:02.674Z,6.45
2022-12-14T08:41:31.483Z,6.43
2022-12-14T08:44:01.507Z,10.15
2022-12-14T08:46:32.956Z,8.73
2022-12-14T08:49:01.721Z,7.88
2022-12-14T08:51:30.374Z,7.00
2022-12-14T08:53:59.036Z,6.72
2022-12-14T08:56:28.690Z,7.75
2022-12-14T08:58:57.993Z,8.48
2022-12-14T09:01:32.752Z,7.17
2022-12-14T09:04:06.235Z,7.75
2022-12-14T09:06:35.953Z,6.67
2022-12-14T09:09:04.670Z,7.28
2022-12-14T09:11:33.062Z,6.47
2022-12-14T09:14:02.916Z,7.15
2022-12-14T09:16:31.316Z,9.45
2022-12-14T09:18:59.505Z,10.68
2022-12-14T09:21:29.599Z,7.32
2022-12-14T09:23:59.827Z,6.55
2022-12-14T09:26:29.776Z,6.50
2022-12-14T09:28:59.017Z,6.20
2022-12-14T09:31:29.170Z,5.45
2022-12-14T09:33:57.874Z,6.07
2022-12-14T09:36:29.166Z,5.90
2022-12-14T09:38:58.298Z,6.30
2022-12-14T09:41:43.281Z,5.70
2022-12-14T09:44:19.470Z,6.00
2022-12-14T09:46:57.775Z,5.07
2022-12-14T09:49:30.731Z,6.53
2022-12-14T09:52:02.522Z,6.20
2022-12-14T09:54:34.333Z,5.60
2022-12-14T09:57:09.571Z,6.35
2022-12-14T09:59:38.011Z,5.67
2022-12-14T10:02:30.938Z,5.35
2022-12-14T10:05:21.421Z,5.45
2022-12-14T10:08:02.545Z,5.70
2022-12-14T10:10:38.349Z,5.30
2022-12-14T10:13:18.855Z,6.22
2022-12-14T10:15:56.019Z,5.40
2022-12-14T10:19:04.317Z,5.80
2022-12-14T10:21:44.455Z,5.38
2022-12-14T10:24:20.977Z,5.15
2022-12-14T10:26:52.920Z,5.28
2022-12-14T10:29:30.754Z,5.55
2022-12-14T10:32:08.520Z,6.20
2022-12-14T10:34:38.338Z,6.20
2022-12-14T10:37:25.577Z,5.50
2022-12-14T10:40:12.987Z,6.50
2022-12-14T10:42:51.693Z,6.55
2022-12-14T10:45:40.394Z,6.20
2022-12-14T10:48:40.934Z,6.95
2022-12-14T10:51:12.650Z,6.90
2022-12-14T10:53:45.863Z,6.97
2022-12-14T10:56:20.987Z,6.95
2022-12-14T10:59:30.118Z,6.07
2022-12-14T11:02:08.115Z,6.75
2022-12-14T11:04:40.192Z,6.32
2022-12-14T11:07:10.196Z,6.53
2022-12-14T11:09:40.285Z,7.50
2022-12-14T11:12:18.909Z,6.80
2022-12-14T11:14:59.408Z,6.88
2022-12-14T11:17:34.299Z,6.43
2022-12-14T11:20:16.436Z,6.35
2022-12-14T11:22:46.534Z,6.43
2022-12-14T11:25:40.851Z,6.60
2022-12-14T11:28:36.590Z,6.70
2022-12-14T11:31:09.226Z,6.60
2022-12-14T11:33:40.726Z,6.32
2022-12-14T11:36:09.952Z,6.20
2022-12-14T11:38:38.215Z,6.20
2022-12-14T11:41:11.317Z,5.80
2022-12-14T11:43:41.379Z,6.95
2022-12-14T11:46:09.717Z,6.32
2022-12-14T11:48:51.593Z,6.47
2022-12-14T11:51:19.927Z,5.82
2022-12-14T11:54:03.666Z,6.30
2022-12-14T11:56:32.011Z,7.05
2022-12-14T11:59:01.649Z,6.20
2022-12-14T12:01:29.941Z,7.47
2022-12-14T12:04:00.737Z,5.90
2022-12-14T12:06:30.921Z,6.77
2022-12-14T12:09:01.702Z,6.97
2022-12-14T12:11:33.111Z,7.03
2022-12-14T12:14:05.203Z,7.28
2022-12-14T12:16:35.528Z,6.72
2022-12-14T12:19:12.491Z,6.40
2022-12-14T12:21:43.073Z,6.15
2022-12-14T12:24:18.063Z,6.40
2022-12-14T12:26:51.196Z,6.60
2022-12-14T12:29:27.886Z,6.60
2022-12-14T12:31:59.814Z,7.07
2022-12-14T12:34:32.635Z,6.20
2022-12-14T12:37:25.755Z,6.80
2022-12-14T12:40:00.081Z,6.57
2022-12-14T12:42:38.000Z,6.30
2022-12-14T12:45:14.929Z,6.22
2022-12-14T12:47:47.958Z,5.70
2022-12-14T12:50:18.375Z,6.20
2022-12-14T12:53:02.451Z,6.97
2022-12-14T12:55:35.641Z,6.60
2022-12-14T12:58:09.805Z,7.30
2022-12-14T13:00:42.467Z,7.30
2022-12-14T13:03:17.043Z,7.10
2022-12-14T13:05:48.271Z,7.13
2022-12-14T13:08:24.570Z,7.13
2022-12-14T13:13:52.698Z,7.43
2022-12-14T13:16:27.862Z,7.32
2022-12-14T13:19:48.792Z,6.82
2022-12-14T13:21:54.641Z,7.55
2022-12-14T13:24:25.053Z,6.60
2022-12-14T13:27:22.973Z,7.88
2022-12-14T13:30:05.246Z,6.50
2022-12-14T13:32:49.821Z,7.00
2022-12-14T13:35:31.030Z,6.60
2022-12-14T13:38:13.370Z,7.15
2022-12-14T13:41:02.752Z,6.75
2022-12-14T13:43:48.742Z,6.25
2022-12-14T13:46:22.684Z,5.90
2022-12-14T13:48:54.483Z,6.50
2022-12-14T13:51:29.403Z,6.57
2022-12-14T13:54:00.230Z,7.05
2022-12-14T13:56:33.586Z,8.30
2022-12-14T13:59:05.277Z,9.05
2022-12-14T14:01:58.373Z,8.82
2022-12-14T14:04:30.843Z,9.10
2022-12-14T14:07:38.205Z,8.30
2022-12-14T14:10:07.870Z,8.85
2022-12-14T14:12:45.909Z,8.30
2022-12-14T14:15:51.931Z,7.50
2022-12-14T14:18:29.383Z,7.55
2022-12-14T14:21:42.728Z,6.90
2022-12-14T14:24:22.813Z,7.10
2022-12-14T14:27:02.109Z,6.85
2022-12-14T14:29:31.206Z,5.63
2022-12-14T14:32:01.935Z,6.40
2022-12-14T14:34:41.479Z,6.18
2022-12-14T14:37:27.215Z,6.80
2022-12-14T14:40:16.671Z,6.77
2022-12-14T14:42:52.506Z,5.88
2022-12-14T14:45:32.195Z,6.25
2022-12-14T14:48:03.188Z,6.15
2022-12-14T14:50:36.352Z,6.60
2022-12-14T14:53:28.754Z,7.50
2022-12-14T14:56:45.042Z,6.60
2022-12-14T14:59:40.317Z,7.87
2022-12-14T15:02:40.625Z,6.78
2022-12-14T15:08:20.740Z,7.10
2022-12-14T15:10:51.025Z,6.60
2022-12-14T15:13:24.513Z,6.90
2022-12-14T15:15:56.429Z,7.65
2022-12-14T15:18:26.917Z,6.75
2022-12-14T15:20:59.215Z,8.10
2022-12-14T15:23:34.446Z,7.97
2022-12-14T15:26:05.019Z,8.60
2022-12-14T15:28:33.250Z,8.25
2022-12-14T15:31:01.583Z,8.00
2022-12-14T15:33:34.347Z,8.70
2022-12-14T15:36:08.122Z,9.02
2022-12-14T15:38:38.510Z,8.88
2022-12-14T15:41:13.311Z,7.97
2022-12-14T15:43:45.944Z,9.13
2022-12-14T15:46:18.464Z,8.90
2022-12-14T15:48:47.264Z,8.70
2022-12-14T15:51:19.380Z,8.73
2022-12-14T15:53:51.516Z,8.40
2022-12-14T15:56:27.298Z,8.35
2022-12-14T15:58:57.678Z,8.57
2022-12-14T16:01:28.683Z,7.60
2022-12-14T16:03:59.594Z,7.82
2022-12-14T16:06:30.686Z,9.18
2022-12-14T16:09:05.698Z,8.45
2022-12-14T16:11:38.636Z,9.15
2022-12-14T16:14:18.454Z,9.75
2022-12-14T16:16:47.392Z,9.07
2022-12-14T16:19:27.940Z,9.68
2022-12-14T16:22:14.565Z,9.15
2022-12-14T16:25:17.833Z,9.30
2022-12-14T16:27:49.831Z,11.50
2022-12-14T16:30:22.993Z,9.40
2022-12-14T16:32:54.367Z,10.88
2022-12-14T16:35:24.719Z,10.88
2022-12-14T16:37:55.697Z,10.73
2022-12-14T16:40:34.670Z,11.98
2022-12-14T16:43:04.057Z,12.90
2022-12-14T16:46:02.000Z,11.85
2022-12-14T16:48:30.935Z,12.48
2022-12-14T16:52:05.880Z,12.98
2022-12-14T16:54:27.091Z,12.13
2022-12-14T16:57:01.368Z,12.77
2022-12-14T16:59:37.994Z,12.02
2022-12-14T17:02:10.393Z,10.75
2022-12-14T17:04:43.419Z,11.50
2022-12-14T17:07:15.814Z,17.45
2022-12-14T17:09:45.095Z,18.00
2022-12-14T17:12:19.286Z,16.20
2022-12-14T17:14:49.838Z,19.77
2022-12-14T17:17:23.132Z,28.15
2022-12-14T17:19:51.510Z,26.65
2022-12-14T17:22:25.671Z,23.40
2022-12-14T17:24:53.977Z,24.77
2022-12-14T17:27:26.694Z,23.92
2022-12-14T17:29:57.258Z,20.20
2022-12-14T17:32:30.650Z,16.30
2022-12-14T17:34:59.295Z,17.00
2022-12-14T17:37:34.151Z,26.33
2022-12-14T17:40:05.660Z,25.70
2022-12-14T17:42:35.593Z,22.15
2022-12-14T17:45:04.135Z,19.97
2022-12-14T17:47:32.318Z,19.80
2022-12-14T17:50:00.604Z,18.80
2022-12-14T17:52:31.853Z,19.08
2022-12-14T17:55:00.419Z,20.17
2022-12-14T17:57:28.731Z,18.95
2022-12-14T18:00:12.250Z,19.13
2022-12-14T18:02:40.920Z,17.20
2022-12-14T18:05:17.908Z,16.45
2022-12-14T18:07:46.195Z,16.13
2022-12-14T18:10:18.956Z,15.35
2022-12-14T18:12:47.282Z,17.05
2022-12-14T18:15:22.513Z,16.38
2022-12-14T18:17:51.690Z,16.50
2022-12-14T18:20:21.169Z,16.40
2022-12-14T18:22:51.173Z,15.80
2022-12-14T18:25:30.200Z,16.02
2022-12-14T18:27:58.942Z,16.75
2022-12-14T18:30:34.902Z,15.90
2022-12-14T18:33:07.336Z,16.55
2022-12-14T18:35:37.177Z,17.27
2022-12-14T18:38:05.418Z,17.07
2022-12-14T18:40:33.660Z,16.73
2022-12-14T18:43:01.895Z,17.20
2022-12-14T18:45:33.762Z,18.20
2022-12-14T18:48:02.159Z,19.17
2022-12-14T18:50:31.296Z,18.10
2022-12-14T18:52:59.621Z,18.80
2022-12-14T18:55:30.120Z,18.30
2022-12-14T18:58:01.933Z,20.48
2022-12-14T19:00:33.874Z,19.23
2022-12-14T19:03:03.965Z,20.23
2022-12-14T19:05:33.176Z,19.55
2022-12-14T19:08:01.854Z,18.75
2022-12-14T19:10:32.133Z,19.40
2022-12-14T19:13:00.611Z,19.17
2022-12-14T19:15:32.109Z,19.50
2022-12-14T19:18:00.617Z,18.67
2022-12-14T19:20:29.925Z,28.52
2022-12-14T19:22:58.703Z,38.33
2022-12-14T19:25:26.980Z,36.00
2022-12-14T19:30:46.114Z,29.00
2022-12-14T19:33:14.757Z,28.35
2022-12-14T19:35:43.630Z,22.73
2022-12-14T19:38:16.243Z,24.83
2022-12-14T19:40:46.504Z,22.45
2022-12-14T19:43:14.792Z,22.42
2022-12-14T19:45:44.570Z,24.08
2022-12-14T19:48:14.213Z,23.10
2022-12-14T19:50:42.618Z,22.75
2022-12-14T19:53:10.828Z,23.30
2022-12-14T19:55:39.229Z,24.73
2022-12-14T19:58:07.366Z,23.37
2022-12-14T20:00:35.653Z,23.20
2022-12-14T20:03:04.155Z,21.67
2022-12-14T20:05:33.946Z,20.80
2022-12-14T20:08:02.279Z,21.15
2022-12-14T20:10:30.536Z,21.02
2022-12-14T20:12:58.699Z,19.90
2022-12-14T20:15:27.074Z,21.15
2022-12-14T20:17:55.267Z,20.50
2022-12-14T20:20:23.869Z,21.65
2022-12-14T20:22:53.443Z,23.67
2022-12-14T20:25:21.810Z,23.45
2022-12-14T20:27:52.167Z,24.27
2022-12-14T20:30:20.532Z,25.45
2022-12-14T20:32:49.287Z,24.45
2022-12-14T20:35:18.762Z,25.45
2022-12-14T20:37:47.299Z,24.17
2022-12-14T20:40:17.045Z,24.23
2022-12-14T20:42:45.236Z,24.65
2022-12-14T20:45:13.657Z,24.67
2022-12-14T20:47:41.869Z,23.92
2022-12-14T20:50:10.250Z,23.30
2022-12-14T20:52:38.706Z,24.23
2022-12-14T20:55:07.458Z,24.08
2022-12-14T20:57:37.072Z,23.42
2022-12-14T21:00:06.636Z,23.98
2022-12-14T21:02:34.999Z,21.88
2022-12-14T21:05:03.383Z,24.63
2022-12-14T21:07:32.710Z,21.05
2022-12-14T21:10:00.942Z,20.35
2022-12-14T21:12:29.257Z,20.75
2022-12-14T21:14:59.461Z,19.40
2022-12-14T21:17:30.358Z,19.93
2022-12-14T21:19:58.947Z,18.25
2022-12-14T21:22:28.871Z,20.92
2022-12-14T21:25:06.037Z,19.40
2022-12-14T21:27:38.164Z,19.90
2022-12-14T21:30:11.758Z,19.15
2022-12-14T21:32:40.087Z,19.27
2022-12-14T21:35:08.931Z,18.52
2022-12-14T21:37:39.062Z,18.90
2022-12-14T21:40:28.878Z,17.15
2022-12-14T21:42:56.099Z,17.23
2022-12-14T21:45:25.705Z,18.23
2022-12-14T21:47:54.081Z,18.13
2022-12-14T21:50:22.337Z,17.92
2022-12-14T21:52:50.556Z,19.10
2022-12-14T21:55:18.797Z,17.48
2022-12-14T21:58:04.228Z,18.05
2022-12-14T22:00:33.775Z,17.70
2022-12-14T22:03:02.326Z,18.60
2022-12-14T22:05:30.860Z,17.85
2022-12-14T22:07:59.060Z,19.30
2022-12-14T22:10:27.316Z,17.95
2022-12-14T22:12:55.563Z,17.02
2022-12-14T22:15:23.953Z,16.20
2022-12-14T22:17:53.537Z,16.35
2022-12-14T22:20:21.741Z,16.67
2022-12-14T22:22:49.910Z,16.73
2022-12-14T22:25:18.224Z,17.08
2022-12-14T22:27:49.691Z,15.50
2022-12-14T22:30:19.107Z,15.75
2022-12-14T22:32:47.871Z,14.15
2022-12-14T22:35:18.170Z,14.73
2022-12-14T22:37:46.439Z,12.90
2022-12-14T22:40:14.737Z,12.00
2022-12-14T22:42:43.038Z,11.32
2022-12-14T22:45:11.653Z,12.30
2022-12-14T22:47:39.870Z,11.27
2022-12-14T22:50:09.145Z,11.38
2022-12-14T22:52:38.783Z,11.00
2022-12-14T22:55:07.840Z,11.48
2022-12-14T22:57:41.749Z,11.52
2022-12-14T23:00:15.879Z,11.18
2022-12-14T23:02:48.107Z,11.30
2022-12-14T23:05:17.660Z,10.40
2022-12-14T23:07:47.505Z,11.45
2022-12-14T23:10:33.374Z,10.05
2022-12-14T23:13:18.893Z,10.33
2022-12-14T23:16:04.579Z,11.07
2022-12-14T23:18:50.179Z,9.70
2022-12-14T23:21:35.946Z,10.57
2022-12-14T23:24:24.510Z,10.18
2022-12-14T23:27:10.208Z,10.05
2022-12-14T23:29:56.138Z,9.30
2022-12-14T23:32:41.977Z,10.10
2022-12-14T23:35:27.622Z,10.07
2022-12-14T23:38:13.141Z,10.52
2022-12-14T23:41:00.107Z,10.77
2022-12-14T23:43:45.736Z,9.90
2022-12-14T23:46:31.250Z,10.38
2022-12-14T23:49:16.763Z,9.43
2022-12-14T23:52:02.676Z,9.40
2022-12-14T23:54:48.653Z,9.60
2022-12-14T23:57:36.278Z,8.77
